Terminal Aerodrome Forecast
Issued by NWS

Home | Current Version | Previous Version | Text Only | Print | Product List | Glossary On
Versions: 1 2 3 4 5 6 7 8 9 10 11 12 13 14 15 16
823
FTUS46 KMTR 251720
TAFMRY
TAF
KMRY 251720Z 2518/2618 VRB03KT P6SM OVC008
     FM251900 27006KT P6SM BKN009
     FM252000 28010KT P6SM FEW010
     FM260130 VRB04KT P6SM OVC006
     FM260600 VRB03KT P6SM OVC004
     FM260900 VRB02KT 5SM BR OVC003=

USA.gov is the U.S. government's official web portal to all federal, state and local government web resources and services.